Time;durP1;ratioP1;P1;durP2;ratioP2;P2;SDS_P1;SDS_P2;PMS_P1;PMS_P2;Temp;Humidity;BMP_temperature;BMP_pressure;BME280_temperature;BME280_humidity;BME280_pressure;Samples;Min_cycle;Max_cycle;Signal;HPM_P1;HPM_P2
2022/09/23 00:01:49;;;;;;;1.42;0.45;;;;;;;24.37;26.59;97030.84;5014791;28;20030;-34
2022/09/23 00:04:14;;;;;;;0.90;0.65;;;;;;;24.40;26.65;97029.09;5014779;28;20022;-34
2022/09/23 00:06:40;;;;;;;0.60;0.50;;;;;;;24.44;26.56;97024.81;5014718;28;20079;-34
2022/09/23 00:09:06;;;;;;;1.08;0.65;;;;;;;24.50;26.19;97022.78;5014864;28;20026;-34
2022/09/23 00:11:31;;;;;;;2.25;0.60;;;;;;;24.38;26.34;97020.53;5014622;28;20049;-34
2022/09/23 00:13:58;;;;;;;0.90;0.68;;;;;;;24.44;26.44;97024.81;5014754;28;20017;-34
2022/09/23 00:16:27;;;;;;;1.45;0.45;;;;;;;24.39;26.67;97027.59;5014830;28;20026;-34
2022/09/23 00:18:53;;;;;;;0.60;0.43;;;;;;;24.41;26.47;97028.59;5014830;28;20026;-34
2022/09/23 00:21:20;;;;;;;0.70;0.50;;;;;;;24.33;26.91;97024.81;5014704;28;20099;-34
2022/09/23 00:23:46;;;;;;;0.60;0.43;;;;;;;24.30;26.58;97034.13;5013249;28;20049;-34
2022/09/23 00:26:14;;;;;;;1.25;0.50;;;;;;;24.40;26.56;97029.09;5014395;28;20470;-34
2022/09/23 00:28:40;;;;;;;0.80;0.50;;;;;;;24.35;26.29;97038.94;5014461;28;20022;-35
2022/09/23 00:31:18;;;;;;;0.65;0.50;;;;;;;24.30;26.44;97026.59;5014267;28;20044;-35
2022/09/23 00:33:44;;;;;;;1.05;0.57;;;;;;;24.28;26.54;97031.13;5014510;28;20037;-34
2022/09/23 00:36:15;;;;;;;0.70;0.60;;;;;;;24.31;26.39;97032.88;5013995;28;20036;-34
2022/09/23 00:38:40;;;;;;;0.70;0.50;;;;;;;24.31;26.50;97030.13;5014230;28;20459;-34
2022/09/23 00:41:06;;;;;;;1.45;0.50;;;;;;;24.25;26.91;97035.63;5014116;28;20091;-34
2022/09/23 00:43:48;;;;;;;0.80;0.40;;;;;;;24.22;26.72;97035.88;5014184;28;20053;-34
2022/09/23 00:46:37;;;;;;;0.70;0.52;;;;;;;24.28;26.45;97037.41;5014089;28;20033;-34
2022/09/23 00:49:08;;;;;;;0.40;0.40;;;;;;;24.23;26.68;97042.97;5014233;28;20420;-35
2022/09/23 00:51:37;;;;;;;0.52;0.50;;;;;;;24.19;26.96;97043.19;5013970;28;20382;-34
2022/09/23 00:54:05;;;;;;;1.42;0.60;;;;;;;24.22;26.91;97033.09;5013962;28;20044;-34
2022/09/23 00:56:32;;;;;;;0.50;0.40;;;;;;;24.25;26.62;97035.63;5013879;28;20545;-34
2022/09/23 00:58:59;;;;;;;2.05;0.40;;;;;;;24.16;26.94;97024.78;5014230;28;20029;-35
2022/09/23 01:01:25;;;;;;;0.50;0.50;;;;;;;24.21;26.87;97024.03;5014142;28;20030;-35
2022/09/23 01:03:53;;;;;;;0.82;0.50;;;;;;;24.09;27.06;97033.59;5012550;28;20408;-35
2022/09/23 01:06:19;;;;;;;0.70;0.55;;;;;;;24.32;26.59;97021.28;5013825;28;20049;-35
2022/09/23 01:08:46;;;;;;;0.80;0.50;;;;;;;24.20;26.81;97016.22;5013944;28;20037;-35
2022/09/23 01:11:33;;;;;;;0.50;0.40;;;;;;;24.24;26.84;97017.50;5013793;28;20092;-34
2022/09/23 01:14:20;;;;;;;2.70;1.35;;;;;;;24.26;26.78;97023.28;5013921;28;20072;-34
2022/09/23 01:17:05;;;;;;;0.75;0.63;;;;;;;24.24;26.71;97027.81;5013696;28;20038;-34
2022/09/23 01:20:17;;;;;;;0.82;0.43;;;;;;;24.20;26.64;97021.75;5013678;28;20399;-34
2022/09/23 01:23:10;;;;;;;0.95;0.50;;;;;;;24.22;26.90;97014.50;5013659;28;20041;-34
2022/09/23 01:25:46;;;;;;;0.95;0.50;;;;;;;24.20;27.09;97014.22;5013645;28;20036;-34
2022/09/23 01:28:44;;;;;;;0.45;0.40;;;;;;;24.16;27.15;97010.16;5013572;28;20471;-34
2022/09/23 01:31:24;;;;;;;0.65;0.50;;;;;;;24.21;26.71;97006.66;5013384;28;20062;-34
2022/09/23 01:34:03;;;;;;;1.35;0.57;;;;;;;24.15;27.18;97014.94;5013623;28;20466;-34
2022/09/23 01:37:06;;;;;;;0.57;0.50;;;;;;;24.24;27.19;97002.88;5013505;28;20046;-34
2022/09/23 01:39:44;;;;;;;0.30;0.30;;;;;;;24.13;26.64;97009.16;5013597;28;20029;-35
2022/09/23 01:42:28;;;;;;;0.93;0.50;;;;;;;24.16;27.28;97010.16;5013345;28;20467;-34
2022/09/23 01:45:12;;;;;;;0.50;0.40;;;;;;;24.15;27.23;97005.88;5013725;28;20025;-34
2022/09/23 01:47:57;;;;;;;1.63;0.40;;;;;;;24.30;26.64;97011.97;5013571;28;20022;-34
2022/09/23 01:53:23;;;;;;;0.95;0.50;;;;;;;24.17;26.73;97000.59;5013217;28;20103;-34
2022/09/23 01:55:55;;;;;;;0.60;0.50;;;;;;;24.12;27.20;97002.09;5013441;28;20497;-34
2022/09/23 01:58:31;;;;;;;0.55;0.40;;;;;;;24.16;27.08;97005.38;5016680;28;20461;-34
2022/09/23 02:01:02;;;;;;;0.65;0.52;;;;;;;24.19;27.04;97004.38;5017100;28;20125;-34
2022/09/23 02:03:37;;;;;;;0.63;0.50;;;;;;;24.20;27.30;97008.66;5017136;28;20485;-34
2022/09/23 02:06:14;;;;;;;0.68;0.47;;;;;;;24.16;27.10;97002.59;5017092;28;20022;-35
2022/09/23 02:08:59;;;;;;;0.77;0.40;;;;;;;24.11;27.14;97005.38;5017196;28;20014;-34
2022/09/23 02:11:25;;;;;;;0.60;0.40;;;;;;;24.15;26.75;97000.34;5016988;28;20025;-35
2022/09/23 02:14:03;;;;;;;0.75;0.50;;;;;;;24.18;27.12;97005.63;5015695;28;20449;-34
2022/09/23 02:16:32;;;;;;;0.57;0.50;;;;;;;24.13;27.10;97000.84;5016805;28;20111;-34
2022/09/23 02:19:07;;;;;;;0.98;0.50;;;;;;;24.17;27.38;96995.81;5016974;28;20026;-34
2022/09/23 02:21:37;;;;;;;0.52;0.40;;;;;;;24.19;27.26;97006.41;5015573;28;20053;-34
2022/09/23 02:24:11;;;;;;;0.65;0.50;;;;;;;24.14;27.27;97001.59;5016697;28;20397;-36
2022/09/23 02:27:07;;;;;;;0.52;0.45;;;;;;;24.07;27.45;97007.66;5016720;28;20037;-34
2022/09/23 02:29:37;;;;;;;1.38;0.50;;;;;;;24.13;26.89;97000.09;5016504;28;20458;-34
2022/09/23 02:32:21;;;;;;;0.50;0.40;;;;;;;24.07;27.61;97002.09;5016630;28;20104;-34
2022/09/23 02:34:57;;;;;;;0.63;0.40;;;;;;;24.13;27.63;96991.75;5016506;28;20026;-35
2022/09/23 02:37:36;;;;;;;0.70;0.50;;;;;;;24.19;27.15;96998.09;5016304;28;20191;-34
2022/09/23 02:43:24;;;;;;;0.45;0.40;;;;;;;24.08;27.46;96992.53;5016351;28;20084;-35
2022/09/23 02:45:49;;;;;;;0.50;0.40;;;;;;;24.03;27.10;96993.28;5016654;28;20034;-34
2022/09/23 02:48:28;;;;;;;1.20;0.55;;;;;;;24.09;27.44;96994.06;5016299;28;20033;-34
2022/09/23 02:50:54;;;;;;;0.93;0.50;;;;;;;24.12;26.91;96993.03;5016125;28;20046;-34
2022/09/23 02:53:23;;;;;;;0.60;0.43;;;;;;;24.08;27.42;96987.75;5016241;28;20486;-34
2022/09/23 02:55:48;;;;;;;0.60;0.40;;;;;;;24.10;27.35;96990.03;5016481;28;20041;-34
2022/09/23 02:58:14;;;;;;;0.40;0.40;;;;;;;24.03;27.22;96994.03;5015976;28;20072;-34
2022/09/23 03:00:42;;;;;;;0.40;0.40;;;;;;;24.11;26.87;96991.53;5014731;28;20033;-34
2022/09/23 03:03:11;;;;;;;1.13;0.45;;;;;;;24.14;26.74;96991.28;5016135;28;20391;-34
2022/09/23 03:05:49;;;;;;;0.93;0.50;;;;;;;24.15;27.36;96987.25;5015881;28;20036;-34
2022/09/23 03:08:35;;;;;;;0.50;0.43;;;;;;;24.12;26.81;96979.94;5016045;28;20030;-35
2022/09/23 03:11:10;;;;;;;0.68;0.38;;;;;;;24.06;27.85;96983.97;5016091;28;20022;-34
2022/09/23 03:14:03;;;;;;;0.70;0.50;;;;;;;24.12;27.37;96981.94;5015826;28;20025;-34
2022/09/23 03:16:49;;;;;;;0.68;0.40;;;;;;;24.12;27.30;96984.72;5015732;28;20442;-34
2022/09/23 03:19:42;;;;;;;1.25;0.47;;;;;;;24.14;26.95;96985.72;5015740;28;20056;-35
2022/09/23 03:22:10;;;;;;;0.93;0.38;;;;;;;24.10;26.79;96985.25;5015631;28;20046;-34
2022/09/23 03:24:38;;;;;;;0.50;0.47;;;;;;;24.12;27.34;96988.25;5014186;28;20398;-34
2022/09/23 03:27:12;;;;;;;0.40;0.40;;;;;;;24.12;27.19;96984.72;5014245;28;20430;-34
2022/09/23 03:29:44;;;;;;;0.45;0.40;;;;;;;24.08;27.13;96990.53;5015487;28;20026;-34
2022/09/23 03:32:10;;;;;;;0.50;0.50;;;;;;;24.04;27.58;96987.25;5015483;28;20026;-34
2022/09/23 03:34:40;;;;;;;0.68;0.35;;;;;;;24.02;27.15;96992.53;5015760;28;20022;-34
2022/09/23 03:37:14;;;;;;;0.65;0.45;;;;;;;24.01;27.16;96985.47;5015346;28;20085;-34
2022/09/23 03:39:43;;;;;;;0.60;0.50;;;;;;;24.00;27.19;96987.47;5015441;28;20029;-34
2022/09/23 03:42:25;;;;;;;0.55;0.40;;;;;;;24.09;27.25;96989.25;5015292;28;20049;-35
2022/09/23 03:44:53;;;;;;;1.02;0.50;;;;;;;24.16;26.98;96988.00;5015280;28;20030;-34
2022/09/23 03:47:20;;;;;;;0.50;0.45;;;;;;;23.99;27.17;96991.50;5015181;28;20030;-34
2022/09/23 03:49:50;;;;;;;0.73;0.50;;;;;;;24.03;27.36;96994.03;5015135;28;20563;-34
2022/09/23 03:52:17;;;;;;;1.25;0.40;;;;;;;24.13;26.90;96998.06;5015011;28;20053;-34
2022/09/23 03:54:43;;;;;;;0.50;0.50;;;;;;;24.10;27.62;96998.34;5015023;28;20087;-34
2022/09/23 03:57:10;;;;;;;0.95;0.47;;;;;;;24.01;27.25;96993.78;5015301;28;20022;-34
2022/09/23 03:59:36;;;;;;;0.50;0.50;;;;;;;24.09;27.22;96999.59;5014732;28;20033;-34
2022/09/23 04:02:02;;;;;;;0.45;0.32;;;;;;;24.08;27.30;96998.06;5015200;28;20037;-34
2022/09/23 04:04:28;;;;;;;1.00;0.45;;;;;;;24.00;27.32;97004.09;5014870;28;20022;-34
2022/09/23 04:06:55;;;;;;;0.55;0.47;;;;;;;24.06;27.51;96995.81;5014983;28;20029;-34
2022/09/23 04:09:21;;;;;;;0.50;0.40;;;;;;;23.99;27.62;97008.13;5014764;28;20033;-34
2022/09/23 04:11:50;;;;;;;0.60;0.50;;;;;;;24.06;27.58;96995.81;5014769;28;20028;-34
2022/09/23 04:14:17;;;;;;;0.95;0.50;;;;;;;24.04;26.99;97000.34;5014590;28;20030;-35
2022/09/23 04:16:43;;;;;;;1.63;0.43;;;;;;;24.03;26.99;97001.59;5014674;28;20029;-34
2022/09/23 04:19:09;;;;;;;0.73;0.45;;;;;;;24.09;26.85;96999.59;5014266;28;20464;-34
2022/09/23 04:21:35;;;;;;;0.40;0.40;;;;;;;24.11;27.02;96997.09;5014277;28;20030;-34
2022/09/23 04:24:01;;;;;;;0.43;0.32;;;;;;;24.12;27.32;96993.03;5014798;28;20370;-34
2022/09/23 04:26:26;;;;;;;0.40;0.30;;;;;;;24.08;27.44;96992.53;5014694;28;20116;-34
2022/09/23 04:28:53;;;;;;;0.70;0.50;;;;;;;24.10;27.17;96985.25;5014384;28;20029;-34
2022/09/23 04:31:19;;;;;;;0.85;0.43;;;;;;;24.11;27.03;96988.78;5014537;28;20022;-34
2022/09/23 04:33:44;;;;;;;0.80;0.50;;;;;;;24.04;27.29;96980.94;5014319;28;20029;-34
2022/09/23 04:36:10;;;;;;;0.40;0.40;;;;;;;24.02;27.00;96986.22;5014010;28;20030;-34
2022/09/23 04:38:35;;;;;;;1.48;0.50;;;;;;;23.94;26.97;96988.75;5014502;28;20402;-34
2022/09/23 04:41:01;;;;;;;0.82;0.50;;;;;;;23.97;27.73;96988.50;5014350;28;20076;-35
2022/09/23 04:43:27;;;;;;;2.75;0.55;;;;;;;24.06;26.98;96989.50;5014082;28;20026;-34
2022/09/23 04:46:00;;;;;;;0.50;0.40;;;;;;;24.02;27.51;96992.53;5014033;28;20030;-34
2022/09/23 04:48:27;;;;;;;1.23;0.60;;;;;;;24.07;27.13;96997.31;5014349;28;20030;-34
2022/09/23 04:50:52;;;;;;;0.60;0.40;;;;;;;24.04;27.39;96997.56;5013742;28;20658;-34
2022/09/23 04:53:18;;;;;;;1.50;0.50;;;;;;;24.07;27.29;97002.09;5023158;28;20022;-34
2022/09/23 04:55:44;;;;;;;0.60;0.47;;;;;;;23.97;27.26;97009.91;5010649;28;20415;-34
2022/09/23 04:58:10;;;;;;;1.30;0.70;;;;;;;23.98;27.48;97008.66;5024697;28;20124;-34
2022/09/23 05:00:36;;;;;;;1.02;0.50;;;;;;;24.00;27.00;97009.63;5031838;28;20029;-34
2022/09/23 05:03:02;;;;;;;0.85;0.50;;;;;;;24.02;27.30;97011.16;5031416;28;20528;-34
2022/09/23 05:05:29;;;;;;;0.45;0.40;;;;;;;24.04;26.90;97000.34;5031702;28;20029;-35
2022/09/23 05:07:55;;;;;;;0.57;0.45;;;;;;;24.07;26.63;97004.88;5031533;28;20025;-34
2022/09/23 05:10:21;;;;;;;0.90;0.50;;;;;;;24.06;27.13;97000.59;5018642;28;20032;-34
2022/09/23 05:12:47;;;;;;;0.50;0.50;;;;;;;24.05;27.35;97007.38;5011840;28;20038;-35
2022/09/23 05:15:14;;;;;;;0.65;0.47;;;;;;;24.15;27.00;97008.66;5010331;28;20030;-35
2022/09/23 05:17:39;;;;;;;0.68;0.45;;;;;;;24.14;27.21;97007.91;5011715;28;20108;-34
2022/09/23 05:20:05;;;;;;;1.75;0.43;;;;;;;24.02;27.28;97017.44;5011758;28;20033;-36
2022/09/23 05:22:31;;;;;;;1.10;0.60;;;;;;;24.04;26.67;97028.03;5011812;28;20029;-34
2022/09/23 05:24:58;;;;;;;0.50;0.40;;;;;;;24.05;27.42;97022.00;5011743;28;20394;-34
2022/09/23 05:27:24;;;;;;;1.83;0.50;;;;;;;24.04;27.50;97026.03;5011726;28;20018;-34
2022/09/23 05:29:51;;;;;;;1.15;0.50;;;;;;;24.04;27.07;97036.34;5011730;28;20823;-34
2022/09/23 05:32:16;;;;;;;0.60;0.40;;;;;;;24.06;26.75;97033.84;5013448;28;20092;-34
2022/09/23 05:34:42;;;;;;;1.70;0.85;;;;;;;24.05;27.19;97040.63;5015646;28;20474;-34
2022/09/23 05:37:07;;;;;;;0.50;0.40;;;;;;;24.08;27.16;97042.41;5015517;28;20414;-34
2022/09/23 05:39:33;;;;;;;0.73;0.55;;;;;;;24.07;27.88;97051.97;5015427;28;20058;-34
2022/09/23 05:41:59;;;;;;;0.93;0.40;;;;;;;23.99;27.15;97046.91;5015583;28;20034;-34
2022/09/23 05:44:25;;;;;;;0.65;0.50;;;;;;;24.02;27.24;97044.41;5015557;28;20080;-34
2022/09/23 05:46:51;;;;;;;0.85;0.50;;;;;;;24.05;27.22;97043.41;5027989;28;20187;-34
2022/09/23 05:49:16;;;;;;;1.58;0.50;;;;;;;23.97;27.46;97048.69;5035371;28;20089;-34
2022/09/23 05:51:42;;;;;;;2.53;0.77;;;;;;;24.03;27.47;97045.91;5033579;28;20440;-34
2022/09/23 05:54:07;;;;;;;2.20;0.70;;;;;;;24.08;27.14;97042.41;5033499;28;20040;-34
2022/09/23 05:56:33;;;;;;;2.55;0.70;;;;;;;24.00;27.48;97042.13;5035090;28;20048;-34
2022/09/23 05:59:00;;;;;;;2.25;0.52;;;;;;;24.04;27.57;97047.44;5035025;28;20125;-34
2022/09/23 06:01:30;;;;;;;0.73;0.43;;;;;;;24.05;27.10;97041.41;5034843;28;20036;-34
2022/09/23 06:03:57;;;;;;;0.75;0.65;;;;;;;23.96;26.86;97039.63;5034850;28;20035;-34
2022/09/23 06:06:31;;;;;;;1.75;0.55;;;;;;;23.98;27.54;97044.66;5034255;28;20041;-34
2022/09/23 06:09:00;;;;;;;1.50;0.50;;;;;;;24.05;27.31;97046.94;5035033;28;20065;-35
2022/09/23 06:11:28;;;;;;;2.05;0.60;;;;;;;24.04;27.32;97047.44;5034813;28;20366;-34
2022/09/23 06:13:56;;;;;;;1.13;0.60;;;;;;;24.10;26.89;97046.19;5034898;28;20026;-34
2022/09/23 06:16:21;;;;;;;0.77;0.50;;;;;;;24.08;27.12;97053.50;5034571;28;20030;-34
2022/09/23 06:18:47;;;;;;;1.63;0.52;;;;;;;24.08;26.90;97047.94;5034746;28;20029;-34
2022/09/23 06:21:14;;;;;;;0.60;0.40;;;;;;;24.05;27.22;97049.72;5033255;28;20436;-35
2022/09/23 06:23:40;;;;;;;1.27;0.60;;;;;;;24.05;27.27;97054.50;5033348;28;20384;-35
2022/09/23 06:26:08;;;;;;;0.80;0.50;;;;;;;24.10;27.05;97045.44;5034479;28;20120;-34
2022/09/23 06:28:36;;;;;;;1.25;0.57;;;;;;;24.03;27.00;97052.22;5034393;28;20033;-34
2022/09/23 06:31:04;;;;;;;0.60;0.57;;;;;;;23.98;26.67;97050.94;5034362;28;20520;-34
2022/09/23 06:33:30;;;;;;;1.10;0.68;;;;;;;24.02;27.21;97044.41;5034425;28;20041;-34
2022/09/23 06:35:57;;;;;;;1.10;0.60;;;;;;;24.03;27.35;97045.91;5034130;28;20826;-35
2022/09/23 06:38:23;;;;;;;0.90;0.50;;;;;;;23.99;26.79;97038.59;5034485;28;20507;-34
2022/09/23 06:40:54;;;;;;;0.60;0.40;;;;;;;24.07;27.15;97046.44;5034050;28;20113;-35
2022/09/23 06:43:21;;;;;;;0.90;0.70;;;;;;;24.05;27.07;97043.41;5032535;28;20036;-34
2022/09/23 06:45:47;;;;;;;2.15;0.60;;;;;;;24.09;27.13;97043.94;5030383;28;20092;-34
2022/09/23 06:48:12;;;;;;;0.90;0.60;;;;;;;24.04;27.00;97053.72;5014469;28;20033;-34
2022/09/23 06:50:38;;;;;;;1.25;0.60;;;;;;;24.06;27.06;97053.22;5014310;28;20418;-34
2022/09/23 06:53:04;;;;;;;0.60;0.50;;;;;;;24.07;27.75;97055.50;5014366;28;20124;-34
2022/09/23 06:55:29;;;;;;;0.88;0.60;;;;;;;24.04;27.09;97052.97;5012533;28;20061;-35
2022/09/23 06:57:57;;;;;;;0.98;0.60;;;;;;;23.89;27.95;97058.72;5014310;28;20096;-34
2022/09/23 07:00:23;;;;;;;0.98;0.70;;;;;;;23.99;27.23;97060.75;5014144;28;20463;-34
2022/09/23 07:02:49;;;;;;;1.10;0.60;;;;;;;24.00;27.18;97064.28;5014227;28;20030;-34
2022/09/23 07:05:16;;;;;;;1.75;0.60;;;;;;;23.99;27.54;97060.00;5020972;28;20076;-34
2022/09/23 07:07:42;;;;;;;1.08;0.63;;;;;;;23.96;27.04;97053.47;5011565;28;20037;-35
2022/09/23 07:10:09;;;;;;;0.93;0.60;;;;;;;23.97;27.86;97054.25;5013706;28;20034;-34
2022/09/23 07:12:34;;;;;;;2.03;0.73;;;;;;;23.90;27.65;97055.47;5014004;28;20438;-34
2022/09/23 07:14:59;;;;;;;0.90;0.60;;;;;;;23.97;27.71;97065.31;5013690;28;20049;-34
2022/09/23 07:17:25;;;;;;;0.60;0.50;;;;;;;23.91;27.34;97068.06;5013960;28;20037;-34
2022/09/23 07:19:51;;;;;;;0.73;0.60;;;;;;;23.89;28.16;97064.28;5013664;28;20026;-34
2022/09/23 07:22:17;;;;;;;1.15;0.65;;;;;;;23.98;27.22;97059.25;5013474;28;20049;-34
2022/09/23 07:24:45;;;;;;;1.02;0.50;;;;;;;23.94;27.33;97072.59;5013349;28;20071;-34
2022/09/23 07:27:15;;;;;;;1.35;0.50;;;;;;;23.86;27.80;97070.84;5014509;28;20433;-34
2022/09/23 07:29:43;;;;;;;2.05;0.60;;;;;;;23.91;27.89;97068.06;5021674;28;20029;-34
2022/09/23 07:32:09;;;;;;;1.23;0.47;;;;;;;23.91;27.59;97076.38;5024423;28;20501;-34
2022/09/23 07:34:35;;;;;;;1.05;0.60;;;;;;;23.84;27.56;97079.63;5033534;28;20030;-34
2022/09/23 07:37:01;;;;;;;1.02;0.60;;;;;;;23.95;27.86;97078.91;5032878;28;20045;-34
2022/09/23 07:39:28;;;;;;;0.95;0.63;;;;;;;22.49;27.65;97085.63;5017319;28;20026;-34
2022/09/23 07:41:53;;;;;;;0.70;0.50;;;;;;;23.00;27.49;97086.75;5015463;28;20033;-34
2022/09/23 07:44:20;;;;;;;0.80;0.52;;;;;;;23.31;26.92;97082.41;5015125;28;20033;-34
2022/09/23 07:46:47;;;;;;;0.90;0.60;;;;;;;23.51;26.89;97071.19;5014687;28;20398;-34
2022/09/23 07:49:13;;;;;;;0.93;0.60;;;;;;;23.58;26.67;97087.34;5013944;28;20045;-34
2022/09/23 07:51:39;;;;;;;1.10;0.60;;;;;;;23.69;26.85;97079.09;5014509;28;20080;-34
2022/09/23 07:54:08;;;;;;;2.15;0.80;;;;;;;23.68;26.52;97077.56;5013913;28;20026;-34
2022/09/23 07:56:35;;;;;;;1.48;0.57;;;;;;;23.77;26.73;97087.66;5014975;28;20469;-34
2022/09/23 07:59:04;;;;;;;1.05;0.52;;;;;;;23.71;26.90;97084.13;5014925;28;20026;-34
2022/09/23 08:01:32;;;;;;;0.63;0.50;;;;;;;23.82;26.98;97093.22;5014887;28;20079;-34
2022/09/23 08:04:01;;;;;;;1.40;0.50;;;;;;;23.75;27.17;97092.94;5014875;28;20108;-34
2022/09/23 08:06:26;;;;;;;1.00;0.60;;;;;;;23.76;27.41;97094.44;5014867;28;20034;-34
2022/09/23 08:08:52;;;;;;;1.30;0.57;;;;;;;23.65;28.01;97089.63;5015036;28;20336;-34
2022/09/23 08:11:18;;;;;;;1.48;0.60;;;;;;;23.78;27.09;97086.41;5014621;28;20064;-34
2022/09/23 08:13:44;;;;;;;0.88;0.60;;;;;;;23.83;27.40;97083.66;5014789;28;20550;-34
2022/09/23 08:16:09;;;;;;;1.55;0.73;;;;;;;23.86;27.48;97093.00;5013413;28;20026;-34
2022/09/23 08:18:35;;;;;;;3.08;0.70;;;;;;;23.88;27.16;97093.22;5014812;28;20028;-34
2022/09/23 08:21:01;;;;;;;1.05;0.50;;;;;;;23.83;27.10;97094.75;5014421;28;20026;-35
2022/09/23 08:23:32;;;;;;;0.80;0.57;;;;;;;23.80;27.57;97092.19;5014406;28;20025;-34
2022/09/23 08:25:59;;;;;;;0.50;0.50;;;;;;;23.76;27.79;97105.53;5014666;28;20029;-34
2022/09/23 08:28:25;;;;;;;2.30;0.70;;;;;;;23.87;27.37;97103.56;5014533;28;20026;-34
2022/09/23 08:30:51;;;;;;;1.75;0.60;;;;;;;23.80;27.23;97106.81;5014613;28;20028;-34
2022/09/23 08:33:16;;;;;;;0.70;0.50;;;;;;;23.75;27.78;97101.25;5014384;28;20025;-34
2022/09/23 08:35:42;;;;;;;0.68;0.50;;;;;;;23.71;27.38;97114.59;5014537;28;20034;-34
2022/09/23 08:38:07;;;;;;;0.77;0.52;;;;;;;23.84;27.50;97107.34;5014332;28;20050;-34
2022/09/23 08:40:42;;;;;;;0.98;0.63;;;;;;;23.83;27.37;97110.59;5013104;28;20033;-34
2022/09/23 08:43:25;;;;;;;2.33;0.77;;;;;;;23.88;27.37;97118.91;5014402;28;20026;-34
2022/09/23 08:45:54;;;;;;;0.73;0.47;;;;;;;23.80;27.69;97120.66;5014259;28;20057;-34
2022/09/23 08:48:31;;;;;;;0.63;0.60;;;;;;;23.71;27.65;97120.13;5014149;28;20026;-34
2022/09/23 08:51:02;;;;;;;1.30;0.68;;;;;;;23.69;27.89;97119.88;5014093;28;20045;-34
2022/09/23 08:53:35;;;;;;;0.60;0.45;;;;;;;23.84;27.71;97117.66;5014642;28;20021;-34
2022/09/23 08:56:10;;;;;;;1.15;0.55;;;;;;;23.86;27.31;97120.69;5014048;28;20084;-34
2022/09/23 08:59:06;;;;;;;1.30;0.60;;;;;;;23.85;27.40;97113.63;5014289;28;20018;-34
2022/09/23 09:02:03;;;;;;;1.20;0.55;;;;;;;23.68;27.73;97115.56;5014020;28;20590;-34
2022/09/23 09:04:43;;;;;;;0.75;0.57;;;;;;;23.70;27.86;97119.38;5013042;28;20398;-34
2022/09/23 09:07:08;;;;;;;0.93;0.70;;;;;;;23.69;27.54;97117.09;5013758;28;20025;-34
2022/09/23 09:09:47;;;;;;;1.23;0.60;;;;;;;23.74;27.59;97125.41;5014015;28;20032;-35
2022/09/23 09:12:21;;;;;;;1.15;0.55;;;;;;;23.62;27.96;97115.53;5012698;28;20348;-34
2022/09/23 09:14:57;;;;;;;0.77;0.60;;;;;;;23.75;27.49;97121.38;5013725;28;20040;-34
2022/09/23 09:17:45;;;;;;;2.95;0.52;;;;;;;23.82;27.67;97114.63;5013765;28;20054;-34
2022/09/23 09:20:15;;;;;;;0.88;0.50;;;;;;;23.78;27.42;97108.56;5013718;28;20025;-34
2022/09/23 09:23:18;;;;;;;0.73;0.52;;;;;;;23.75;27.31;97118.63;5013925;28;20052;-34
2022/09/23 09:25:51;;;;;;;0.98;0.63;;;;;;;23.50;27.79;97123.03;5013490;28;20120;-34
2022/09/23 09:28:32;;;;;;;2.00;0.60;;;;;;;23.51;27.83;97129.34;5013613;28;20091;-35
2022/09/23 09:31:20;;;;;;;0.52;0.50;;;;;;;23.67;27.71;97119.59;5012489;28;20026;-34
2022/09/23 09:34:17;;;;;;;0.43;0.40;;;;;;;23.57;27.66;97113.53;5013559;28;20072;-34
2022/09/23 09:36:58;;;;;;;1.83;0.45;;;;;;;23.63;27.84;97109.50;5012501;28;20441;-34
2022/09/23 09:39:24;;;;;;;1.05;0.60;;;;;;;23.59;27.72;97111.78;5011637;28;20034;-34
2022/09/23 09:41:57;;;;;;;1.58;0.57;;;;;;;23.60;27.92;97121.59;5013542;28;20101;-34
2022/09/23 09:44:35;;;;;;;0.88;0.60;;;;;;;23.67;27.96;97116.81;5013504;28;20026;-34
2022/09/23 09:47:36;;;;;;;1.65;0.90;;;;;;;23.66;27.25;97113.28;5013624;28;20100;-34
2022/09/23 09:50:20;;;;;;;2.50;0.65;;;;;;;23.68;27.16;97119.09;5012296;28;20069;-34
2022/09/23 09:52:47;;;;;;;2.08;0.60;;;;;;;23.63;27.80;97120.59;5013604;28;20105;-34
2022/09/23 09:55:12;;;;;;;0.80;0.57;;;;;;;23.67;27.61;97123.13;5013650;28;20030;-34
2022/09/23 09:57:51;;;;;;;0.75;0.55;;;;;;;23.69;27.65;97131.69;5013310;28;20056;-34
2022/09/23 10:00:25;;;;;;;0.65;0.50;;;;;;;23.82;27.42;97136.78;5013225;28;20030;-34
2022/09/23 10:02:52;;;;;;;0.98;0.68;;;;;;;23.69;27.38;97123.38;5013188;28;20028;-34
2022/09/23 10:05:44;;;;;;;1.23;0.50;;;;;;;23.64;27.23;97140.72;5013445;28;20026;-34
2022/09/23 10:08:34;;;;;;;0.70;0.60;;;;;;;23.71;27.58;97137.50;5013370;28;20022;-34
2022/09/23 10:11:16;;;;;;;1.75;0.70;;;;;;;23.72;27.14;97139.03;5012609;28;20034;-34
2022/09/23 10:14:09;;;;;;;1.58;0.60;;;;;;;23.55;27.88;97138.16;5013229;28;20018;-34
2022/09/23 10:16:34;;;;;;;1.60;0.40;;;;;;;23.58;27.72;97142.72;5013181;28;20026;-34
2022/09/23 10:19:15;;;;;;;1.20;0.65;;;;;;;23.67;27.05;97138.97;5015816;28;20029;-34
2022/09/23 10:21:41;;;;;;;0.90;0.50;;;;;;;23.83;26.96;97136.28;5017159;28;20033;-34
2022/09/23 10:24:07;;;;;;;2.03;0.60;;;;;;;23.46;25.13;97143.88;5016793;28;20127;-34
2022/09/23 10:26:41;;;;;;;0.57;0.40;;;;;;;23.57;27.16;97150.28;5015589;28;20026;-34
2022/09/23 10:29:28;;;;;;;1.85;0.63;;;;;;;23.58;27.85;97146.25;5016685;28;20112;-34
2022/09/23 10:32:22;;;;;;;0.77;0.60;;;;;;;23.61;27.61;97150.78;5016955;28;20026;-34
2022/09/23 10:34:54;;;;;;;1.05;0.50;;;;;;;23.80;27.19;97142.81;5015327;28;20037;-34
2022/09/23 10:37:35;;;;;;;1.15;0.60;;;;;;;23.82;27.03;97136.78;5016419;28;20129;-34
2022/09/23 10:48:41;;;;;;;3.08;0.60;;;;;;;23.80;26.85;97134.50;5016561;28;20048;-34
2022/09/23 10:51:17;;;;;;;1.45;0.60;;;;;;;23.84;26.80;97135.03;5016410;28;20041;-34
2022/09/23 10:54:25;;;;;;;0.93;0.60;;;;;;;23.94;27.34;97132.81;5016454;28;20022;-34
2022/09/23 10:57:36;;;;;;;1.02;0.60;;;;;;;23.81;27.15;97130.50;5013997;28;20072;-34
2022/09/23 11:00:28;;;;;;;0.77;0.47;;;;;;;23.94;26.86;97122.47;5013823;28;20041;-34
2022/09/23 11:03:08;;;;;;;0.80;0.40;;;;;;;23.85;26.18;97131.00;5014603;28;20064;-34
2022/09/23 11:05:45;;;;;;;0.70;0.50;;;;;;;23.98;26.99;97133.31;5014332;28;20030;-34
2022/09/23 11:08:35;;;;;;;0.85;0.50;;;;;;;24.02;27.16;97124.75;5013811;28;20529;-34
2022/09/23 11:11:27;;;;;;;0.65;0.60;;;;;;;24.00;26.81;97126.00;5013650;28;20065;-34
2022/09/23 11:14:22;;;;;;;0.95;0.70;;;;;;;23.92;26.82;97116.66;5013887;28;20038;-34
2022/09/23 11:17:13;;;;;;;0.70;0.50;;;;;;;23.96;25.47;97108.88;5013823;28;20475;-34
2022/09/23 11:20:16;;;;;;;1.45;0.60;;;;;;;23.36;25.82;97117.66;5013802;28;20564;-34
2022/09/23 11:23:10;;;;;;;1.13;0.50;;;;;;;23.58;26.35;97112.25;5013759;28;20041;-34
2022/09/23 11:25:46;;;;;;;2.45;0.60;;;;;;;23.37;26.65;97116.41;5014038;28;20022;-34
2022/09/23 11:28:16;;;;;;;0.55;0.52;;;;;;;23.58;25.71;97112.25;5013438;28;20410;-34
2022/09/23 11:30:57;;;;;;;0.52;0.40;;;;;;;23.60;27.46;97113.28;4996430;28;20018;-34
2022/09/23 11:33:45;;;;;;;0.68;0.43;;;;;;;23.72;26.04;97103.00;5014497;28;20109;-34
2022/09/23 11:36:24;;;;;;;1.67;0.60;;;;;;;23.59;27.65;97113.78;5015452;28;20013;-35
2022/09/23 11:38:54;;;;;;;0.90;0.60;;;;;;;23.71;27.42;97107.03;5015605;28;20045;-34
2022/09/23 11:41:28;;;;;;;0.60;0.50;;;;;;;23.89;27.04;97098.28;5015206;28;20030;-34
2022/09/23 11:44:49;;;;;;;0.80;0.55;;;;;;;23.81;26.63;97091.72;5015305;28;20022;-34
2022/09/23 11:47:36;;;;;;;1.75;0.60;;;;;;;23.94;26.64;97097.53;5014405;28;20037;-34
2022/09/23 11:50:20;;;;;;;0.82;0.52;;;;;;;24.00;26.93;97094.78;5015177;28;20109;-34
2022/09/23 11:53:00;;;;;;;0.50;0.40;;;;;;;23.96;26.43;97092.25;5015392;28;20084;-34
2022/09/23 11:55:34;;;;;;;1.05;0.50;;;;;;;23.84;25.16;97082.41;5014971;28;20026;-34
2022/09/23 11:58:03;;;;;;;0.90;0.57;;;;;;;23.83;26.62;97085.69;5015068;28;20018;-34
2022/09/23 12:00:34;;;;;;;0.60;0.47;;;;;;;23.89;26.42;97081.66;5014922;28;20065;-34
2022/09/23 12:03:22;;;;;;;0.57;0.47;;;;;;;23.43;24.94;97081.22;5020207;28;20029;-35
2022/09/23 12:05:59;;;;;;;0.88;0.60;;;;;;;23.40;23.90;97074.66;5032904;28;20029;-34
2022/09/23 12:08:31;;;;;;;0.70;0.60;;;;;;;23.61;26.56;97072.53;5032849;28;20048;-34
2022/09/23 12:11:24;;;;;;;0.77;0.60;;;;;;;23.98;26.65;97073.09;5032766;28;20018;-34
2022/09/23 12:14:04;;;;;;;2.92;0.60;;;;;;;23.84;26.48;97068.56;5032809;28;20033;-34
2022/09/23 12:16:52;;;;;;;0.73;0.52;;;;;;;23.58;25.16;97073.50;5030944;28;20032;-35